Dallas, Texas
Traffic Map
Current Weather Conditions
Dallas, Texas
Few Clouds
Few Clouds
72°
Feels Like: 72°
Wind Chill: 72° Ceiling: Unl
Heat Index: 72° Visibility: 10mi
Dew Point: 45° Wind: 12mph
Humidity: 38% Direction: 300° (WNW)
Pressure: 29.92in Gusts: 18mph
Raw Report DataKDAL 252153Z 30010G16KT 10SM FEW045 FEW300 22/07 A2992 RMK AO2 SLP126 T02220072
Traffic Incident Summary
Active as of:
Severity:
Category:
InformationThere was an issue retrieving the traffic information for this location. Please try a different location or try again shortly.
Advertisements
Track Severe Weather on mobile